createdAt,value
2019-01-26T00:01:22.645Z,100122.80
2019-01-26T00:03:52.611Z,100109.28
2019-01-26T00:06:22.744Z,100103.62
2019-01-26T00:08:52.759Z,100106.66
2019-01-26T00:11:24.260Z,100110.97
2019-01-26T00:13:54.380Z,100106.66
2019-01-26T00:16:24.443Z,100110.14
2019-01-26T00:18:54.436Z,100113.64
2019-01-26T00:21:24.630Z,100116.70
2019-01-26T00:23:55.732Z,100115.81
2019-01-26T00:26:26.190Z,100094.92
2019-01-26T00:28:56.415Z,100107.58
2019-01-26T00:31:27.049Z,100109.30
2019-01-26T00:33:56.998Z,100094.93
2019-01-26T00:36:26.957Z,100083.16
2019-01-26T00:38:56.799Z,100079.23
2019-01-26T00:41:27.403Z,100084.03
2019-01-26T00:43:57.374Z,100094.06
2019-01-26T00:46:28.435Z,100092.31
2019-01-26T00:48:59.626Z,100090.12
2019-01-26T00:51:29.739Z,100081.84
2019-01-26T00:53:59.853Z,100084.02
2019-01-26T00:56:30.305Z,100082.71
2019-01-26T00:59:20.780Z,100075.30
2019-01-26T01:01:50.846Z,100092.32
2019-01-26T01:04:21.098Z,100082.72
2019-01-26T01:06:51.174Z,100077.92
2019-01-26T01:09:21.240Z,100073.55
2019-01-26T01:11:51.336Z,100066.13
2019-01-26T01:14:21.346Z,100061.76
2019-01-26T01:16:51.338Z,100066.58
2019-01-26T01:19:22.382Z,100059.14
2019-01-26T01:21:52.306Z,100044.75
2019-01-26T01:24:22.371Z,100033.84
2019-01-26T01:26:52.520Z,100039.95
2019-01-26T01:29:46.883Z,100042.57
2019-01-26T01:32:20.890Z,100038.61
2019-01-26T01:34:50.931Z,100034.28
2019-01-26T01:37:21.202Z,100034.27
2019-01-26T01:39:51.253Z,100034.70
2019-01-26T01:42:21.216Z,100034.25
2019-01-26T01:44:52.173Z,100047.33
2019-01-26T01:47:23.592Z,100035.55
2019-01-26T01:49:53.615Z,100041.67
2019-01-26T01:52:24.570Z,100037.28
2019-01-26T01:54:54.546Z,100030.73
2019-01-26T01:57:24.608Z,100029.42
2019-01-26T01:59:55.701Z,100019.34
2019-01-26T02:02:25.794Z,100033.77
2019-01-26T02:04:55.782Z,100039.45
2019-01-26T02:07:26.082Z,100041.17
2019-01-26T02:09:56.125Z,100030.75
2019-01-26T02:12:26.172Z,100034.64
2019-01-26T02:14:56.107Z,100035.92
2019-01-26T02:17:26.047Z,100038.56
2019-01-26T02:19:56.119Z,100046.41
2019-01-26T02:22:26.173Z,100046.41
2019-01-26T02:24:56.799Z,100037.69
2019-01-26T02:27:46.739Z,100039.86
2019-01-26T02:30:19.236Z,100042.48
2019-01-26T02:32:49.135Z,100037.67
2019-01-26T02:35:19.110Z,100031.13
2019-01-26T02:37:49.140Z,100033.27
2019-01-26T02:40:19.093Z,100028.88
2019-01-26T02:42:49.116Z,100035.45
2019-01-26T02:45:23.240Z,100029.78
2019-01-26T02:47:57.033Z,100031.05
2019-01-26T02:50:30.748Z,100027.98
2019-01-26T02:53:00.965Z,100027.53
2019-01-26T02:55:32.372Z,100029.30
2019-01-26T02:58:02.621Z,100031.45
2019-01-26T03:00:32.563Z,100029.28
2019-01-26T03:03:02.551Z,100034.48
2019-01-26T03:05:34.185Z,100026.20
2019-01-26T03:08:04.221Z,100027.09
2019-01-26T03:10:34.242Z,100021.41
2019-01-26T03:13:04.561Z,100024.02
2019-01-26T03:15:34.655Z,100017.87
2019-01-26T03:18:04.607Z,100015.25
2019-01-26T03:20:35.617Z,100010.88
2019-01-26T03:23:05.657Z,100005.17
2019-01-26T03:25:35.589Z,100001.25
2019-01-26T03:28:05.791Z,100013.50
2019-01-26T03:30:35.687Z,100021.33
2019-01-26T03:33:06.366Z,100011.80
2019-01-26T03:35:40.238Z,100011.73
2019-01-26T03:38:10.130Z,100008.27
2019-01-26T03:40:41.180Z,99999.50
2019-01-26T03:43:13.883Z,100010.37
2019-01-26T03:45:43.998Z,100003.85
2019-01-26T03:48:13.832Z,100006.86
2019-01-26T03:50:45.287Z,100000.27
2019-01-26T03:53:15.268Z,99998.99
2019-01-26T03:55:50.115Z,99991.11
2019-01-26T03:58:20.072Z,99987.11
2019-01-26T04:00:49.987Z,99979.63
2019-01-26T04:03:19.895Z,99979.17
2019-01-26T04:05:50.244Z,99991.42
2019-01-26T04:08:20.214Z,99986.20
2019-01-26T04:10:51.630Z,99991.98
2019-01-26T04:13:21.581Z,99993.66
2019-01-26T04:15:51.417Z,99983.13
2019-01-26T04:18:21.383Z,99980.05
2019-01-26T04:20:51.525Z,99974.30
2019-01-26T04:23:21.472Z,99982.60
2019-01-26T04:25:51.649Z,99985.23
2019-01-26T04:28:21.801Z,99979.97
2019-01-26T04:30:51.719Z,99978.70
2019-01-26T04:33:21.719Z,99979.97
2019-01-26T04:35:52.043Z,99972.98
2019-01-26T04:38:21.956Z,99974.81
2019-01-26T04:40:52.322Z,99976.97
2019-01-26T04:43:26.270Z,99974.80
2019-01-26T04:45:57.536Z,99976.98
2019-01-26T04:48:27.461Z,99971.70
2019-01-26T04:50:57.436Z,99970.75
2019-01-26T04:53:27.381Z,99967.64
2019-01-26T04:55:57.227Z,99965.39
2019-01-26T04:58:27.131Z,99971.58
2019-01-26T05:00:57.193Z,99964.08
2019-01-26T05:03:27.104Z,99971.17
2019-01-26T05:05:56.951Z,99976.42
2019-01-26T05:08:26.839Z,99975.08
2019-01-26T05:10:56.836Z,99966.70
2019-01-26T05:13:35.219Z,99964.11
2019-01-26T05:16:05.164Z,99961.05
2019-01-26T05:18:50.561Z,99968.41
2019-01-26T05:21:20.542Z,99969.59
2019-01-26T05:23:51.323Z,99962.58
2019-01-26T05:26:21.958Z,99966.12
2019-01-26T05:28:52.314Z,99966.55
2019-01-26T05:31:22.302Z,99957.77
2019-01-26T05:33:54.546Z,99956.37
2019-01-26T05:36:26.416Z,99964.33
2019-01-26T05:38:56.373Z,99949.69
2019-01-26T05:41:26.288Z,99952.28
2019-01-26T05:43:59.147Z,99947.84
2019-01-26T05:46:29.160Z,99946.01
2019-01-26T05:48:59.106Z,99939.00
2019-01-26T05:51:28.928Z,99936.78
2019-01-26T05:53:59.280Z,99933.75
2019-01-26T05:56:29.714Z,99932.39
2019-01-26T05:58:59.823Z,99930.55
2019-01-26T06:01:31.096Z,99926.11
2019-01-26T06:04:01.108Z,99923.56
2019-01-26T06:06:32.149Z,99921.28
2019-01-26T06:09:02.265Z,99913.45
2019-01-26T06:11:32.635Z,99912.50
2019-01-26T06:14:04.170Z,99914.24
2019-01-26T06:16:33.986Z,99907.34
2019-01-26T06:19:03.934Z,99903.33
2019-01-26T06:21:50.111Z,99897.53
2019-01-26T06:24:15.422Z,99895.85
2019-01-26T06:26:47.908Z,99891.37
2019-01-26T06:29:17.909Z,99888.74
2019-01-26T06:31:47.885Z,99885.27
2019-01-26T06:34:17.895Z,99868.77
2019-01-26T06:36:48.148Z,99873.83
2019-01-26T06:39:18.563Z,99863.73
2019-01-26T06:41:53.635Z,99866.73
2019-01-26T06:44:24.392Z,99865.41
2019-01-26T06:46:54.303Z,99862.41
2019-01-26T06:49:28.103Z,99859.23
2019-01-26T06:52:26.108Z,99856.59
2019-01-26T06:54:56.083Z,99853.58
2019-01-26T06:57:27.620Z,99845.27
2019-01-26T06:59:59.589Z,99837.81
2019-01-26T07:02:57.612Z,99843.64
2019-01-26T07:05:55.010Z,99836.13
2019-01-26T07:08:26.123Z,99844.02
2019-01-26T07:10:56.089Z,99844.10
2019-01-26T07:16:55.766Z,99835.35
2019-01-26T07:19:57.208Z,99845.82
2019-01-26T07:22:27.153Z,99840.52
2019-01-26T07:24:57.086Z,99841.91
2019-01-26T07:28:03.427Z,99841.75
2019-01-26T07:30:41.479Z,99830.31
2019-01-26T07:33:21.121Z,99843.88
2019-01-26T07:35:51.329Z,99835.00
2019-01-26T07:38:28.901Z,99828.19
2019-01-26T07:41:08.399Z,99821.67
2019-01-26T07:43:40.102Z,99837.43
2019-01-26T07:47:11.909Z,99825.25
2019-01-26T07:49:42.154Z,99824.88
2019-01-26T07:52:13.939Z,99829.25
2019-01-26T07:54:49.222Z,99827.10
2019-01-26T07:57:19.583Z,99817.80
2019-01-26T08:03:14.911Z,99814.56
2019-01-26T08:05:45.159Z,99806.06
2019-01-26T08:08:17.511Z,99809.73
2019-01-26T08:10:49.764Z,99803.48
2019-01-26T08:13:24.345Z,99797.78
2019-01-26T08:15:54.338Z,99795.89
2019-01-26T08:18:24.412Z,99799.09
2019-01-26T08:20:55.130Z,99797.95
2019-01-26T08:23:25.079Z,99803.23
2019-01-26T08:25:58.183Z,99790.31
2019-01-26T08:28:35.550Z,99799.95
2019-01-26T08:31:07.666Z,99792.43
2019-01-26T08:33:37.681Z,99799.95
2019-01-26T08:36:07.663Z,99796.69
2019-01-26T08:38:48.569Z,99798.42
2019-01-26T08:41:24.921Z,99791.02
2019-01-26T08:43:56.429Z,99793.05
2019-01-26T08:46:27.862Z,99796.62
2019-01-26T08:48:57.899Z,99788.20
2019-01-26T08:51:28.061Z,99792.70
2019-01-26T08:54:21.521Z,99785.13
2019-01-26T08:56:51.491Z,99796.98
2019-01-26T08:59:21.506Z,99795.61
2019-01-26T09:01:55.079Z,99793.90
2019-01-26T09:04:29.331Z,99799.03
2019-01-26T09:07:02.745Z,99796.77
2019-01-26T09:09:33.086Z,99793.65
2019-01-26T09:12:04.531Z,99796.01
2019-01-26T09:14:35.459Z,99795.06
2019-01-26T09:17:06.494Z,99802.27
2019-01-26T09:19:38.243Z,99795.30
2019-01-26T09:22:08.414Z,99789.64
2019-01-26T09:24:42.287Z,99792.03
2019-01-26T09:27:13.315Z,99792.23
2019-01-26T09:29:45.506Z,99800.52
2019-01-26T09:32:17.009Z,99796.91
2019-01-26T09:34:47.646Z,99795.59
2019-01-26T09:37:17.889Z,99797.92
2019-01-26T09:39:47.926Z,99789.93
2019-01-26T09:42:17.979Z,99793.42
2019-01-26T09:44:47.980Z,99798.98
2019-01-26T09:47:18.008Z,99801.22
2019-01-26T09:49:48.023Z,99800.85
2019-01-26T09:52:21.794Z,99796.05
2019-01-26T09:54:51.882Z,99806.88
2019-01-26T09:57:23.706Z,99798.22
2019-01-26T09:59:53.744Z,99801.58
2019-01-26T10:02:23.840Z,99801.28
2019-01-26T10:04:53.877Z,99799.50
2019-01-26T10:07:26.462Z,99801.61
2019-01-26T10:09:56.755Z,99800.69
2019-01-26T10:12:26.698Z,99800.06
2019-01-26T10:14:56.641Z,99801.08
2019-01-26T10:17:30.644Z,99802.75
2019-01-26T10:20:00.657Z,99800.78
2019-01-26T10:22:31.746Z,99789.80
2019-01-26T10:25:01.705Z,99796.17
2019-01-26T10:27:34.027Z,99801.90
2019-01-26T10:30:05.317Z,99804.86
2019-01-26T10:32:35.334Z,99807.85
2019-01-26T10:35:05.564Z,99802.45
2019-01-26T10:37:35.588Z,99806.11
2019-01-26T10:40:08.142Z,99799.09
2019-01-26T10:42:38.344Z,99802.16
2019-01-26T10:45:14.237Z,99794.66
2019-01-26T10:47:45.648Z,99792.45
2019-01-26T10:50:15.622Z,99794.19
2019-01-26T10:52:45.701Z,99795.94
2019-01-26T10:55:17.584Z,99799.42
2019-01-26T10:57:47.555Z,99791.56
2019-01-26T11:00:17.674Z,99793.48
2019-01-26T11:02:47.587Z,99792.34
2019-01-26T11:05:17.524Z,99790.49
2019-01-26T11:07:49.774Z,99790.34
2019-01-26T11:10:21.811Z,99789.45
2019-01-26T11:12:57.766Z,99792.59
2019-01-26T11:15:27.679Z,99788.56
2019-01-26T11:17:57.541Z,99795.89
2019-01-26T11:20:28.988Z,99788.50
2019-01-26T11:22:59.423Z,99803.52
2019-01-26T11:25:30.564Z,99795.69
2019-01-26T11:28:04.221Z,99793.33
2019-01-26T11:30:35.123Z,99788.03
2019-01-26T11:33:05.135Z,99782.41
2019-01-26T11:35:34.928Z,99776.17
2019-01-26T11:38:04.767Z,99780.05
2019-01-26T11:40:34.674Z,99779.27
2019-01-26T11:43:07.810Z,99782.84
2019-01-26T11:46:03.141Z,99782.80
2019-01-26T11:48:38.274Z,99774.51
2019-01-26T11:51:28.185Z,99775.40
2019-01-26T11:53:58.661Z,99781.02
2019-01-26T11:56:38.797Z,99773.94
2019-01-26T11:59:11.484Z,99773.73
2019-01-26T12:01:57.599Z,99773.08
2019-01-26T12:05:07.715Z,99771.02
2019-01-26T12:07:39.416Z,99773.82
2019-01-26T12:10:14.833Z,99770.95
2019-01-26T12:12:45.397Z,99767.92
2019-01-26T12:15:15.965Z,99768.89
2019-01-26T12:17:45.931Z,99768.67
2019-01-26T12:20:18.128Z,99769.02
2019-01-26T12:22:49.726Z,99765.45
2019-01-26T12:25:19.917Z,99766.66
2019-01-26T12:27:51.024Z,99762.36
2019-01-26T12:30:22.476Z,99764.26
2019-01-26T12:32:55.543Z,99757.75
2019-01-26T12:35:25.533Z,99755.50
2019-01-26T12:37:58.642Z,99758.48
2019-01-26T12:40:28.572Z,99749.92
2019-01-26T12:42:59.303Z,99754.81
2019-01-26T12:45:34.096Z,99757.17
2019-01-26T12:48:04.291Z,99757.09
2019-01-26T12:50:37.005Z,99747.25
2019-01-26T12:53:08.016Z,99754.34
2019-01-26T12:55:40.447Z,99764.03
2019-01-26T12:58:11.931Z,99748.77
2019-01-26T13:00:41.791Z,99761.35
2019-01-26T13:03:11.763Z,99761.47
2019-01-26T13:05:42.473Z,99753.80
2019-01-26T13:08:20.101Z,99755.16
2019-01-26T13:10:52.860Z,99747.88
2019-01-26T13:13:23.143Z,99748.45
2019-01-26T13:15:53.152Z,99742.60
2019-01-26T13:18:23.184Z,99742.14
2019-01-26T13:20:53.270Z,99741.44
2019-01-26T13:23:23.558Z,99738.88
2019-01-26T13:25:53.732Z,99739.70
2019-01-26T13:28:23.777Z,99733.50
2019-01-26T13:30:53.839Z,99740.03
2019-01-26T13:33:24.294Z,99742.91
2019-01-26T13:35:54.333Z,99741.52
2019-01-26T13:38:25.317Z,99740.05
2019-01-26T13:40:55.647Z,99742.25
2019-01-26T13:43:25.686Z,99743.38
2019-01-26T13:45:55.669Z,99742.91
2019-01-26T13:48:25.768Z,99748.22
2019-01-26T13:50:56.049Z,99738.66
2019-01-26T13:53:26.110Z,99735.55
2019-01-26T13:55:56.443Z,99741.79
2019-01-26T13:58:26.445Z,99731.26
2019-01-26T14:00:56.857Z,99732.65
2019-01-26T14:03:27.020Z,99741.64
2019-01-26T14:05:57.212Z,99732.77
2019-01-26T14:08:27.339Z,99727.53
2019-01-26T14:10:57.396Z,99732.22
2019-01-26T14:13:27.327Z,99731.70
2019-01-26T14:15:57.346Z,99726.52
2019-01-26T14:18:27.450Z,99726.18
2019-01-26T14:20:58.276Z,99715.52
2019-01-26T14:23:28.210Z,99719.20
2019-01-26T14:25:58.213Z,99720.91
2019-01-26T14:28:29.048Z,99718.01
2019-01-26T14:31:01.313Z,99722.92
2019-01-26T14:33:31.409Z,99717.46
2019-01-26T14:36:01.246Z,99722.85
2019-01-26T14:38:31.487Z,99714.56
2019-01-26T14:41:01.931Z,99717.27
2019-01-26T14:43:35.332Z,99720.17
2019-01-26T14:46:05.380Z,99717.89
2019-01-26T14:48:36.416Z,99713.33
2019-01-26T14:51:06.575Z,99717.73
2019-01-26T14:53:36.570Z,99717.81
2019-01-26T14:56:08.948Z,99721.84
2019-01-26T14:58:39.166Z,99713.29
2019-01-26T15:01:09.270Z,99718.86
2019-01-26T15:03:39.175Z,99720.95
2019-01-26T15:06:11.613Z,99715.22
2019-01-26T15:08:41.585Z,99715.18
2019-01-26T15:11:11.652Z,99708.09
2019-01-26T15:13:41.874Z,99699.80
2019-01-26T15:16:11.939Z,99705.66
2019-01-26T15:18:41.935Z,99701.08
2019-01-26T15:21:11.886Z,99703.45
2019-01-26T15:23:41.869Z,99694.80
2019-01-26T15:26:13.390Z,99697.22
2019-01-26T15:28:43.536Z,99695.78
2019-01-26T15:31:13.909Z,99701.52
2019-01-26T15:33:45.395Z,99699.73
2019-01-26T15:36:15.344Z,99699.46
2019-01-26T15:38:47.681Z,99699.80
2019-01-26T15:41:17.657Z,99694.93
2019-01-26T15:43:47.649Z,99692.72
2019-01-26T15:46:18.489Z,99698.88
2019-01-26T15:48:48.654Z,99694.38
2019-01-26T15:51:18.659Z,99695.89
2019-01-26T15:53:48.684Z,99694.97
2019-01-26T15:56:18.817Z,99688.66
2019-01-26T15:58:48.798Z,99690.59
2019-01-26T16:01:18.913Z,99686.33
2019-01-26T16:03:48.914Z,99691.67
2019-01-26T16:06:18.937Z,99691.56
2019-01-26T16:08:48.978Z,99689.78
2019-01-26T16:11:19.190Z,99688.23
2019-01-26T16:13:49.245Z,99682.53
2019-01-26T16:16:19.120Z,99688.23
2019-01-26T16:18:49.157Z,99689.39
2019-01-26T16:21:19.136Z,99679.36
2019-01-26T16:23:49.198Z,99681.57
2019-01-26T16:26:19.174Z,99684.00
2019-01-26T16:28:49.185Z,99667.66
2019-01-26T16:31:19.266Z,99677.97
2019-01-26T16:33:50.341Z,99678.66
2019-01-26T16:36:20.382Z,99674.95
2019-01-26T16:38:50.480Z,99675.03
2019-01-26T16:41:20.409Z,99673.41
2019-01-26T16:43:50.388Z,99671.73
2019-01-26T16:46:20.274Z,99665.89
2019-01-26T16:48:50.215Z,99668.83
2019-01-26T16:51:20.150Z,99669.03
2019-01-26T16:53:50.024Z,99661.83
2019-01-26T16:56:20.370Z,99661.20
2019-01-26T16:58:50.392Z,99654.89
2019-01-26T17:01:20.319Z,99652.45
2019-01-26T17:03:50.283Z,99653.64
2019-01-26T17:06:20.231Z,99648.54
2019-01-26T17:08:50.187Z,99644.89
2019-01-26T17:11:20.169Z,99650.23
2019-01-26T17:13:50.994Z,99642.26
2019-01-26T17:16:22.467Z,99640.55
2019-01-26T17:18:52.835Z,99636.73
2019-01-26T17:21:23.647Z,99629.52
2019-01-26T17:23:53.587Z,99626.12
2019-01-26T17:26:23.583Z,99625.69
2019-01-26T17:28:53.401Z,99624.16
2019-01-26T17:31:23.517Z,99629.02
2019-01-26T17:33:53.432Z,99624.67
2019-01-26T17:36:23.416Z,99626.33
2019-01-26T17:38:54.695Z,99622.51
2019-01-26T17:41:25.311Z,99615.55
2019-01-26T17:43:55.284Z,99614.22
2019-01-26T17:46:25.316Z,99607.20
2019-01-26T17:48:55.420Z,99609.89
2019-01-26T17:51:25.379Z,99609.26
2019-01-26T17:53:56.995Z,99602.12
2019-01-26T17:56:27.028Z,99605.52
2019-01-26T17:58:59.853Z,99601.05
2019-01-26T18:01:30.576Z,99591.58
2019-01-26T18:04:01.444Z,99588.61
2019-01-26T18:06:33.148Z,99588.73
2019-01-26T18:09:04.130Z,99585.53
2019-01-26T18:11:35.214Z,99581.97
2019-01-26T18:14:08.192Z,99571.19
2019-01-26T18:16:38.211Z,99562.86
2019-01-26T18:19:08.330Z,99560.36
2019-01-26T18:21:38.446Z,99554.29
2019-01-26T18:24:08.463Z,99547.45
2019-01-26T18:26:38.446Z,99548.63
2019-01-26T18:29:08.487Z,99536.20
2019-01-26T18:31:38.409Z,99524.00
2019-01-26T18:34:08.541Z,99521.12
2019-01-26T18:36:38.610Z,99522.20
2019-01-26T18:39:09.531Z,99515.47
2019-01-26T18:41:39.985Z,99519.84
2019-01-26T18:44:10.043Z,99519.06
2019-01-26T18:46:40.341Z,99520.14
2019-01-26T18:49:14.616Z,99508.80
2019-01-26T18:51:50.890Z,99516.56
2019-01-26T18:54:21.162Z,99513.48
2019-01-26T18:56:51.051Z,99517.85
2019-01-26T18:59:21.274Z,99509.52
2019-01-26T19:01:51.277Z,99504.77
2019-01-26T19:04:26.503Z,99498.05
2019-01-26T19:06:59.466Z,99496.39
2019-01-26T19:09:31.473Z,99496.91
2019-01-26T19:12:05.329Z,99486.09
2019-01-26T19:14:36.819Z,99473.53
2019-01-26T19:17:06.895Z,99485.43
2019-01-26T19:19:42.381Z,99473.86
2019-01-26T19:22:15.459Z,99468.55
2019-01-26T19:24:45.477Z,99468.63
2019-01-26T19:27:16.414Z,99461.75
2019-01-26T19:29:48.357Z,99462.00
2019-01-26T19:32:18.535Z,99459.55
2019-01-26T19:34:53.782Z,99458.53
2019-01-26T19:37:31.559Z,99453.77
2019-01-26T19:40:05.625Z,99451.33
2019-01-26T19:42:37.247Z,99448.94
2019-01-26T19:45:15.253Z,99441.74
2019-01-26T19:47:48.216Z,99432.00
2019-01-26T19:50:23.226Z,99438.78
2019-01-26T19:52:55.811Z,99433.23
2019-01-26T19:55:30.665Z,99432.38
2019-01-26T19:58:00.805Z,99422.04
2019-01-26T20:00:30.759Z,99418.27
2019-01-26T20:03:02.483Z,99414.75
2019-01-26T20:05:40.361Z,99416.00
2019-01-26T20:08:10.352Z,99408.38
2019-01-26T20:10:43.416Z,99407.97
2019-01-26T20:13:15.038Z,99398.09
2019-01-26T20:15:45.071Z,99394.13
2019-01-26T20:18:15.045Z,99394.70
2019-01-26T20:20:45.046Z,99392.30
2019-01-26T20:23:20.512Z,99390.72
2019-01-26T20:25:55.175Z,99384.88
2019-01-26T20:28:26.737Z,99387.34
2019-01-26T20:30:56.790Z,99385.71
2019-01-26T20:33:26.709Z,99380.44
2019-01-26T20:35:59.589Z,99368.91
2019-01-26T20:38:36.990Z,99369.52
2019-01-26T20:41:12.024Z,99360.30
2019-01-26T20:43:42.587Z,99355.47
2019-01-26T20:46:19.767Z,99351.98
2019-01-26T20:48:54.450Z,99351.35
2019-01-26T20:51:26.827Z,99351.93
2019-01-26T20:54:11.990Z,99354.55
2019-01-26T20:56:53.962Z,99349.84
2019-01-26T20:59:24.174Z,99345.75
2019-01-26T21:01:54.139Z,99323.73
2019-01-26T21:04:27.073Z,99321.22
2019-01-26T21:06:58.056Z,99321.10
2019-01-26T21:09:32.067Z,99309.25
2019-01-26T21:12:08.900Z,99313.27
2019-01-26T21:14:34.673Z,99305.42
2019-01-26T21:17:04.711Z,99295.56
2019-01-26T21:19:44.535Z,99292.66
2019-01-26T21:22:21.308Z,99288.98
2019-01-26T21:24:51.278Z,99286.86
2019-01-26T21:27:22.625Z,99277.48
2019-01-26T21:29:52.936Z,99274.32
2019-01-26T21:32:22.928Z,99274.38
2019-01-26T21:34:52.946Z,99264.84
2019-01-26T21:37:23.031Z,99268.27
2019-01-26T21:39:53.033Z,99260.25
2019-01-26T21:42:23.006Z,99258.00
2019-01-26T21:44:53.016Z,99255.83
2019-01-26T21:47:23.182Z,99250.25
2019-01-26T21:49:53.221Z,99242.94
2019-01-26T21:52:23.650Z,99248.08
2019-01-26T21:54:54.976Z,99239.30
2019-01-26T21:57:25.045Z,99235.40
2019-01-26T21:59:56.766Z,99237.72
2019-01-26T22:02:26.980Z,99229.14
2019-01-26T22:04:58.420Z,99223.44
2019-01-26T22:07:28.441Z,99216.07
2019-01-26T22:09:58.449Z,99216.39
2019-01-26T22:12:28.405Z,99215.28
2019-01-26T22:14:58.381Z,99209.69
2019-01-26T22:17:28.319Z,99213.17
2019-01-26T22:19:58.449Z,99212.47
2019-01-26T22:22:28.506Z,99207.84
2019-01-26T22:25:02.117Z,99196.90
2019-01-26T22:27:32.013Z,99198.95
2019-01-26T22:30:03.892Z,99193.09
2019-01-26T22:32:33.935Z,99193.64
2019-01-26T22:35:03.903Z,99189.48
2019-01-26T22:37:33.980Z,99187.21
2019-01-26T22:40:04.033Z,99183.53
2019-01-26T22:42:34.421Z,99175.98
2019-01-26T22:45:04.405Z,99175.36
2019-01-26T22:47:34.454Z,99177.84
2019-01-26T22:50:05.183Z,99177.78
2019-01-26T22:52:35.199Z,99170.20
2019-01-26T22:55:07.529Z,99163.61
2019-01-26T22:57:37.475Z,99157.94
2019-01-26T23:00:38.620Z,99147.40
2019-01-26T23:03:10.295Z,99143.45
2019-01-26T23:06:02.075Z,99139.19
2019-01-26T23:08:32.115Z,99135.55
2019-01-26T23:11:32.727Z,99132.33
2019-01-26T23:14:46.289Z,99122.54
2019-01-26T23:17:44.237Z,99120.48
2019-01-26T23:21:04.233Z,99113.06
2019-01-26T23:23:59.467Z,99108.88
2019-01-26T23:26:42.711Z,99096.26
2019-01-26T23:29:49.659Z,99091.72
2019-01-26T23:32:20.777Z,99090.94
2019-01-26T23:34:50.666Z,99081.73
2019-01-26T23:37:20.614Z,99079.47
2019-01-26T23:39:50.517Z,99076.39
2019-01-26T23:42:20.333Z,99057.40
2019-01-26T23:44:51.183Z,99052.30
2019-01-26T23:47:21.257Z,99045.59
2019-01-26T23:49:51.205Z,99045.00
2019-01-26T23:52:21.149Z,99037.61
2019-01-26T23:54:51.098Z,99031.91
2019-01-26T23:57:20.936Z,99041.74
2019-01-26T23:59:50.919Z,99029.61
